createdAt,value
2023-12-28T00:03:18.036Z,1000.83
2023-12-28T00:08:22.108Z,1000.99
2023-12-28T00:13:26.313Z,1001.11
2023-12-28T00:18:30.583Z,1001.17
2023-12-28T00:23:34.638Z,1001.29
2023-12-28T00:28:38.788Z,1001.21
2023-12-28T00:33:43.086Z,1001.08
2023-12-28T00:38:47.187Z,1000.94
2023-12-28T00:43:51.271Z,1001.04
2023-12-28T00:48:55.476Z,1001.13
2023-12-28T00:53:59.569Z,1001.14
2023-12-28T00:59:03.772Z,1001.21
2023-12-28T01:04:08.037Z,1001.06
2023-12-28T01:09:12.133Z,1001.07
2023-12-28T01:14:16.232Z,1001.03
2023-12-28T01:19:20.477Z,1001.06
2023-12-28T01:24:24.565Z,1001.29
2023-12-28T01:29:28.723Z,1001.26
2023-12-28T01:34:33.051Z,1001.27
2023-12-28T01:39:37.064Z,1001.34
2023-12-28T01:44:41.215Z,1001.29
2023-12-28T01:49:45.572Z,1001.46
2023-12-28T01:54:49.570Z,1001.37
2023-12-28T01:59:53.680Z,1001.43
2023-12-28T02:04:57.877Z,1001.41
2023-12-28T02:10:02.192Z,1001.45
2023-12-28T02:15:06.150Z,1001.61
2023-12-28T02:20:10.339Z,1001.67
2023-12-28T02:25:14.506Z,1001.63
2023-12-28T02:30:18.817Z,1001.63
2023-12-28T02:35:22.819Z,1001.63
2023-12-28T02:40:26.968Z,1001.74
2023-12-28T02:45:31.184Z,1001.86
2023-12-28T02:50:35.299Z,1001.54
2023-12-28T02:55:39.490Z,1001.58
2023-12-28T03:00:43.778Z,1001.57
2023-12-28T03:05:47.839Z,1001.41
2023-12-28T03:10:51.949Z,1001.27
2023-12-28T03:15:54.291Z,1001.39
2023-12-28T03:20:58.371Z,1001.39
2023-12-28T03:26:02.598Z,1001.34
2023-12-28T03:31:06.792Z,1001.47
2023-12-28T03:36:10.865Z,1001.40
2023-12-28T03:41:15.012Z,1001.38
2023-12-28T03:46:19.166Z,1001.54
2023-12-28T03:51:23.337Z,1001.34
2023-12-28T03:56:27.514Z,1001.36
2023-12-28T04:01:31.721Z,1001.40
2023-12-28T04:06:35.894Z,1001.22
2023-12-28T04:11:40.014Z,1001.40
2023-12-28T04:16:44.174Z,1001.58
2023-12-28T04:21:48.377Z,1001.39
2023-12-28T04:26:52.494Z,1001.22
2023-12-28T04:31:56.659Z,1001.17
2023-12-28T04:37:00.870Z,1001.31
2023-12-28T04:42:04.986Z,1001.29
2023-12-28T04:47:09.164Z,1001.32
2023-12-28T04:52:13.329Z,1001.30
2023-12-28T04:57:17.516Z,1001.34
2023-12-28T05:02:21.613Z,1001.41
2023-12-28T05:07:25.790Z,1001.42
2023-12-28T05:12:40.050Z,1001.33
2023-12-28T05:17:34.145Z,1001.47
2023-12-28T05:22:38.345Z,1001.56
2023-12-28T05:27:42.492Z,1001.70
2023-12-28T05:32:46.646Z,1001.73
2023-12-28T05:37:50.769Z,1001.84
2023-12-28T05:42:55.059Z,1001.83
2023-12-28T05:47:59.578Z,1001.78
2023-12-28T05:53:03.242Z,1001.89
2023-12-28T05:58:07.429Z,1001.97
2023-12-28T06:03:11.592Z,1001.87
2023-12-28T06:08:15.735Z,1001.99
2023-12-28T06:13:19.885Z,1002.04
2023-12-28T06:18:24.150Z,1002.22
2023-12-28T06:23:28.259Z,1002.28
2023-12-28T06:28:32.357Z,1002.22
2023-12-28T06:33:36.720Z,1002.16
2023-12-28T06:38:40.689Z,1002.30
2023-12-28T06:43:44.841Z,1002.21
2023-12-28T06:48:49.331Z,1002.33
2023-12-28T06:53:53.185Z,1002.12
2023-12-28T06:58:57.393Z,1002.05
2023-12-28T07:04:01.602Z,1002.04
2023-12-28T07:09:05.683Z,1002.12
2023-12-28T07:14:09.858Z,1002.10
2023-12-28T07:19:14.097Z,1002.21
2023-12-28T07:24:18.186Z,1002.16
2023-12-28T07:29:22.988Z,1002.14
2023-12-28T07:34:26.695Z,1002.23
2023-12-28T07:39:30.650Z,1002.21
2023-12-28T07:44:34.769Z,1002.17
2023-12-28T07:49:39.054Z,1002.35
2023-12-28T07:54:43.331Z,1002.37
2023-12-28T07:59:47.287Z,1002.41
2023-12-28T08:04:51.691Z,1002.54
2023-12-28T08:09:55.691Z,1002.71
2023-12-28T08:14:59.751Z,1002.61
2023-12-28T08:20:04.077Z,1002.91
2023-12-28T08:25:08.201Z,1002.82
2023-12-28T08:30:12.296Z,1002.80
2023-12-28T08:35:16.460Z,1002.91
2023-12-28T08:40:20.593Z,1002.86
2023-12-28T08:45:22.930Z,1002.96
2023-12-28T08:50:27.120Z,1002.85
2023-12-28T08:55:31.278Z,1003.00
2023-12-28T09:00:35.398Z,1002.93
2023-12-28T09:05:39.568Z,1003.06
2023-12-28T09:10:43.709Z,1002.95
2023-12-28T09:20:52.030Z,1003.04
2023-12-28T09:25:56.149Z,1003.24
2023-12-28T09:31:00.456Z,1003.17
2023-12-28T09:36:04.491Z,1003.35
2023-12-28T09:41:08.692Z,1003.30
2023-12-28T09:46:12.981Z,1003.23
2023-12-28T09:51:18.870Z,1003.21
2023-12-28T09:56:21.151Z,1003.13
2023-12-28T10:01:25.439Z,1003.09
2023-12-28T10:06:29.455Z,1003.16
2023-12-28T10:11:33.662Z,1003.15
2023-12-28T10:16:37.739Z,1003.12
2023-12-28T10:21:41.974Z,1002.99
2023-12-28T10:26:46.085Z,1003.08
2023-12-28T10:31:50.285Z,1003.05
2023-12-28T10:36:54.468Z,1003.08
2023-12-28T10:41:58.555Z,1002.98
2023-12-28T10:47:02.791Z,1002.97
2023-12-28T10:52:06.992Z,1002.96
2023-12-28T10:57:11.092Z,1002.89
2023-12-28T11:02:15.277Z,1002.85
2023-12-28T11:07:19.383Z,1002.67
2023-12-28T11:12:23.569Z,1002.71
2023-12-28T11:17:27.850Z,1002.92
2023-12-28T11:22:31.927Z,1002.82
2023-12-28T11:27:36.135Z,1002.88
2023-12-28T11:32:40.238Z,1002.78
2023-12-28T11:37:44.381Z,1002.73
2023-12-28T11:42:48.528Z,1002.65
2023-12-28T11:47:52.708Z,1002.58
2023-12-28T11:52:56.926Z,1002.65
2023-12-28T11:56:03.535Z,1002.56
2023-12-28T12:02:09.859Z,1002.55
2023-12-28T12:07:14.130Z,1002.53
2023-12-28T12:12:18.279Z,1002.50
2023-12-28T12:17:22.364Z,1002.64
2023-12-28T12:22:29.179Z,1002.49
2023-12-28T12:27:30.706Z,1002.41
2023-12-28T12:32:34.978Z,1002.35
2023-12-28T12:37:39.020Z,1002.48
2023-12-28T12:42:43.229Z,1002.24
2023-12-28T12:47:47.377Z,1002.20
2023-12-28T12:52:51.504Z,1002.21
2023-12-28T12:57:55.723Z,1002.18
2023-12-28T13:02:59.970Z,1001.92
2023-12-28T13:08:03.961Z,1002.02
2023-12-28T13:13:08.251Z,1002.03
2023-12-28T13:18:12.420Z,1002.14
2023-12-28T13:23:16.470Z,1002.04
2023-12-28T13:28:20.619Z,1002.12
2023-12-28T13:33:24.946Z,1002.03
2023-12-28T13:38:27.088Z,1002.07
2023-12-28T13:43:31.232Z,1002.09
2023-12-28T13:48:35.494Z,1002.03
2023-12-28T13:53:39.550Z,1002.07
2023-12-28T13:58:43.712Z,1001.89
2023-12-28T14:03:47.942Z,1001.74
2023-12-28T14:08:52.030Z,1001.77
2023-12-28T14:13:56.189Z,1001.84
2023-12-28T14:19:00.449Z,1001.83
2023-12-28T14:24:04.522Z,1001.78
2023-12-28T14:29:08.676Z,1001.80
2023-12-28T14:34:13.004Z,1001.72
2023-12-28T14:39:16.988Z,1001.83
2023-12-28T14:44:21.222Z,1001.75
2023-12-28T14:49:25.413Z,1001.82
2023-12-28T14:54:29.547Z,1001.83
2023-12-28T14:59:33.673Z,1001.71
2023-12-28T15:04:38.012Z,1001.77
2023-12-28T15:09:42.040Z,1001.81
2023-12-28T15:14:46.134Z,1001.79
2023-12-28T15:19:48.568Z,1001.72
2023-12-28T15:24:52.578Z,1001.77
2023-12-28T15:29:56.729Z,1001.67
2023-12-28T15:35:04.332Z,1001.58
2023-12-28T15:40:05.123Z,1001.59
2023-12-28T15:45:09.255Z,1001.59
2023-12-28T15:50:13.725Z,1001.59
2023-12-28T15:55:17.555Z,1001.53
2023-12-28T16:00:21.729Z,1001.59
2023-12-28T16:05:25.943Z,1001.57
2023-12-28T16:10:30.043Z,1001.59
2023-12-28T16:15:34.192Z,1001.46
2023-12-28T16:20:38.347Z,1001.40
2023-12-28T16:25:42.528Z,1001.36
2023-12-28T16:30:46.721Z,1001.56
2023-12-28T16:35:50.864Z,1001.44
2023-12-28T16:40:54.985Z,1001.39
2023-12-28T16:45:59.221Z,1001.33
2023-12-28T16:51:03.363Z,1001.30
2023-12-28T16:56:07.483Z,1001.28
2023-12-28T17:01:09.840Z,1001.25
2023-12-28T17:06:13.882Z,1001.32
2023-12-28T17:11:18.063Z,1001.36
2023-12-28T17:16:22.222Z,1001.30
2023-12-28T17:21:26.462Z,1001.24
2023-12-28T17:26:30.571Z,1001.36
2023-12-28T17:31:34.793Z,1001.31
2023-12-28T17:36:38.950Z,1001.45
2023-12-28T17:41:43.032Z,1001.33
2023-12-28T17:46:47.206Z,1001.43
2023-12-28T17:51:51.381Z,1001.34
2023-12-28T17:56:55.647Z,1001.34
2023-12-28T18:02:00.342Z,1001.39
2023-12-28T18:07:03.930Z,1001.34
2023-12-28T18:17:12.193Z,1001.27
2023-12-28T18:22:16.316Z,1001.30
2023-12-28T18:27:20.509Z,1001.21
2023-12-28T18:32:24.730Z,1001.10
2023-12-28T18:37:28.833Z,1001.10
2023-12-28T18:42:33.074Z,1001.39
2023-12-28T18:47:35.395Z,1001.29
2023-12-28T18:52:39.439Z,1001.40
2023-12-28T18:57:43.596Z,1001.44
2023-12-28T19:02:47.729Z,1001.37
2023-12-28T19:07:51.873Z,1001.43
2023-12-28T19:12:56.119Z,1001.41
2023-12-28T19:18:00.557Z,1001.31
2023-12-28T19:23:04.424Z,1001.39
2023-12-28T19:28:08.642Z,1001.28
2023-12-28T19:33:12.797Z,1001.48
2023-12-28T19:38:16.871Z,1001.24
2023-12-28T19:43:21.043Z,1001.08
2023-12-28T19:48:25.369Z,1001.10
2023-12-28T19:53:29.418Z,1001.15
2023-12-28T19:58:33.521Z,1000.88
2023-12-28T20:03:37.765Z,1000.95
2023-12-28T20:08:41.874Z,1000.94
2023-12-28T20:13:46.010Z,1000.90
2023-12-28T20:18:50.490Z,1000.93
2023-12-28T20:23:54.352Z,1000.85
2023-12-28T20:28:56.630Z,1000.92
2023-12-28T20:34:00.959Z,1001.01
2023-12-28T20:39:04.965Z,1000.93
2023-12-28T20:44:09.080Z,1000.88
2023-12-28T20:49:13.329Z,1000.96
2023-12-28T20:54:17.467Z,1000.87
2023-12-28T20:59:21.628Z,1000.88
2023-12-28T21:04:25.935Z,1000.85
2023-12-28T21:09:29.937Z,1000.84
2023-12-28T21:14:34.117Z,1000.77
2023-12-28T21:19:47.010Z,1000.71
2023-12-28T21:24:42.476Z,1000.66
2023-12-28T21:29:46.580Z,1000.67
2023-12-28T21:34:50.813Z,1000.61
2023-12-28T21:39:54.957Z,1000.66
2023-12-28T21:44:59.087Z,1000.62
2023-12-28T21:50:03.278Z,1000.45
2023-12-28T21:55:05.512Z,1000.45
2023-12-28T22:00:09.656Z,1000.46
2023-12-28T22:05:13.839Z,1000.40
2023-12-28T22:10:18.036Z,1000.27
2023-12-28T22:15:23.392Z,1000.36
2023-12-28T22:20:26.298Z,1000.35
2023-12-28T22:25:30.475Z,1000.34
2023-12-28T22:30:34.672Z,1000.31
2023-12-28T22:35:38.754Z,1000.11
2023-12-28T22:40:42.934Z,1000.06
2023-12-28T22:45:47.154Z,999.98
2023-12-28T22:50:51.206Z,1000.09
2023-12-28T22:55:55.419Z,1000.01
2023-12-28T23:00:59.689Z,999.93
2023-12-28T23:06:03.744Z,999.81
2023-12-28T23:11:07.920Z,1000.02
2023-12-28T23:16:12.138Z,999.80
2023-12-28T23:21:16.228Z,999.78
2023-12-28T23:26:20.398Z,999.71
2023-12-28T23:31:25.167Z,999.51
2023-12-28T23:36:28.787Z,999.71
2023-12-28T23:41:32.886Z,999.68
2023-12-28T23:46:37.039Z,999.64
2023-12-28T23:51:41.214Z,999.72
2023-12-28T23:56:45.323Z,999.44
